Atlantic City International Airport
KACY : now visible

Airfield :











YOU CAN JOIN US ON...

 
LOGIN :

Register | Disclaimer

   EN    FR    IT 

 









Legend :    VFR   Marginal VFR   IFR   Intensive IFR   Very Intensive IFR
Visi :
Ceiling :
>= 8 km
>= 3000ft
5 to 8 km
1000 to 3000 ft
1500m to 5 km
500 to 1000 ft
800 to 1500m
200 to 500 ft
< 800m
< 200 ft
Symbols :   Thunderstorms  Fog  Heavy snow  Heavy precipitations  Wind > 20 kt






- Airport Elevation : 75 ft
- IATA code : ACY


KACY - Atlantic City International

CURRENT METAR :
  • 281754Z 11014G24KT 10SM SCT030 OVC041 09/07 A3000 RMK AO2 RAE50 PRESFR SLP160 P0004 60019 T00940072 10111 20094 58025

EXPIRED METARs :
  • 281654Z 08008KT 7SM -RA FEW027 OVC035 10/07 A3007 RMK AO2 RAB1557 SLP181 P0005 T01000072
  • 281554Z 09008KT 10SM OVC035 10/08 A3008 RMK AO2 RAB29E38 SLP185 P0000 T01000083

TAF KACY
Valid from the 28 at 18:00 until the 29 at 18:00 UTC


281725Z 2818/2918 08010KT P6SM VCSH SCT015 OVC040
TEMPO 2821/2824 3SM SHRA BR OVC010
FM290000 09004KT 2SM -RA BR OVC005
FM290200 VRB02KT 1/2SM -DZ FG OVC002
FM291200 05005KT 2SM BR OVC005



MET'MAP, your aeronautical weather chart ! - Copyright ORBIFLY December 2007 - Disclaimer

ORBIFLY MET'MAP TEAM :

Programming & Development : Alexandra Zaïnal
Concept & original design : Baudouin d'Aumeries
Assistance for programming : Marc-Olivier Méhu
Technical & hardware support : Manuel Goepfert

Contact : metmap@orbifly.com




SOURCES & CREDITS :

   NOAA       Earth
Advisory